Time;durP1;ratioP1;P1;durP2;ratioP2;P2;SDS_P1;SDS_P2;PMS_P1;PMS_P2;Temp;Humidity;BMP_temperature;BMP_pressure;BME280_temperature;BME280_humidity;BME280_pressure;Samples;Min_cycle;Max_cycle;Signal;HPM_P1;HPM_P2
2022/06/23 00:02:22;;;;;;;;;;;13.50;99.90;;;;;;4845748;29;19934;-93
2022/06/23 00:04:48;;;;;;;;;;;13.50;99.90;;;;;;4845359;29;19927;-94
2022/06/23 00:07:17;;;;;;;;;;;13.50;99.90;;;;;;4846509;29;19924;-94
2022/06/23 00:09:43;;;;;;;;;;;13.50;99.90;;;;;;4841812;29;19928;-94
2022/06/23 00:12:18;;;;;;;;;;;13.50;99.90;;;;;;4842580;29;19930;-94
2022/06/23 00:14:45;;;;;;;;;;;13.40;99.90;;;;;;4842351;29;20007;-95
2022/06/23 00:17:15;;;;;;;;;;;13.40;99.90;;;;;;4842617;29;20035;-94
2022/06/23 00:19:41;;;;;;;;;;;13.40;99.90;;;;;;4842219;29;19924;-95
2022/06/23 00:22:08;;;;;;;;;;;13.40;99.90;;;;;;4842375;29;19943;-94
2022/06/23 00:24:34;;;;;;;;;;;13.30;99.90;;;;;;4842835;29;19940;-94
2022/06/23 00:27:00;;;;;;;;;;;13.30;99.90;;;;;;4842972;29;19919;-94
2022/06/23 00:29:25;;;;;;;;;;;13.30;99.90;;;;;;4842186;29;20340;-95
2022/06/23 00:31:56;;;;;;;;;;;13.30;99.90;;;;;;4842253;29;20387;-95
2022/06/23 00:34:27;;;;;;;;;;;13.20;99.90;;;;;;4842320;29;20472;-95
2022/06/23 00:36:59;;;;;;;;;;;13.20;99.90;;;;;;4843303;29;19924;-95
2022/06/23 00:39:34;;;;;;;;;;;13.20;99.90;;;;;;4849048;29;19972;-94
2022/06/23 00:42:00;;;;;;;;;;;13.20;99.90;;;;;;4850598;29;19939;-95
2022/06/23 00:44:31;;;;;;;;;;;13.20;99.90;;;;;;4850715;29;20273;-95
2022/06/23 00:47:00;;;;;;;;;;;12.70;99.90;;;;;;4854018;29;19924;-94
2022/06/23 00:49:30;;;;;;;;;;;13.20;99.90;;;;;;4853876;29;19935;-94
2022/06/23 00:51:59;;;;;;;;;;;13.10;99.90;;;;;;4849760;29;19981;-94
2022/06/23 00:54:28;;;;;;;;;;;13.10;99.90;;;;;;4857572;29;19924;-94
2022/06/23 00:57:13;;;;;;;;;;;13.10;99.90;;;;;;4866471;29;19935;-94
2022/06/23 00:59:42;;;;;;;;;;;13.10;99.90;;;;;;4866803;29;19942;-94
2022/06/23 01:02:11;;;;;;;;;;;13.10;99.90;;;;;;4848665;29;19980;-94
2022/06/23 01:04:40;;;;;;;;;;;13.10;99.90;;;;;;4843926;29;19924;-95
2022/06/23 01:07:16;;;;;;;;;;;13.10;99.90;;;;;;4844065;29;19975;-93
2022/06/23 01:09:52;;;;;;;;;;;13.00;99.90;;;;;;4844034;29;19924;-94
2022/06/23 01:12:27;;;;;;;;;;;13.00;99.90;;;;;;4841535;29;20337;-93
2022/06/23 01:14:54;;;;;;;;;;;13.00;99.90;;;;;;4841921;29;19920;-93
2022/06/23 01:17:24;;;;;;;;;;;12.90;99.90;;;;;;4841731;29;20349;-95
2022/06/23 01:20:09;;;;;;;;;;;12.90;99.90;;;;;;4840926;29;19945;-94
2022/06/23 01:22:35;;;;;;;;;;;12.90;99.90;;;;;;4841949;29;20042;-95
2022/06/23 01:25:01;;;;;;;;;;;12.90;99.90;;;;;;4841340;29;20337;-95
2022/06/23 01:27:45;;;;;;;;;;;12.50;99.90;;;;;;4841708;29;20052;-94
2022/06/23 01:30:12;;;;;;;;;;;12.80;99.90;;;;;;4857878;29;19927;-95
2022/06/23 01:32:43;;;;;;;;;;;12.80;99.90;;;;;;4842668;29;19928;-94
2022/06/23 01:35:15;;;;;;;;;;;12.80;99.90;;;;;;4869234;29;19924;-94
2022/06/23 01:37:44;;;;;;;;;;;12.80;99.90;;;;;;4844389;29;19934;-94
2022/06/23 01:40:18;;;;;;;;;;;12.80;99.90;;;;;;4859405;29;19934;-94
2022/06/23 01:42:52;;;;;;;;;;;12.80;99.90;;;;;;4844615;29;20014;-95
2022/06/23 01:45:22;;;;;;;;;;;12.80;99.90;;;;;;4844128;29;20261;-94
2022/06/23 01:47:52;;;;;;;;;;;12.70;99.90;;;;;;4844258;29;19928;-94
2022/06/23 01:50:17;;;;;;;;;;;12.70;99.90;;;;;;4843938;29;19923;-94
2022/06/23 01:52:44;;;;;;;;;;;12.60;99.90;;;;;;4862040;29;19982;-94
2022/06/23 01:55:16;;;;;;;;;;;12.60;99.90;;;;;;4845507;29;19982;-94
2022/06/23 01:57:44;;;;;;;;;;;12.60;99.90;;;;;;4846240;29;19971;-94
2022/06/23 02:00:15;;;;;;;;;;;12.50;99.90;;;;;;4843830;29;19996;-95
2022/06/23 02:02:45;;;;;;;;;;;12.50;99.90;;;;;;4844284;29;19972;-94
2022/06/23 02:05:12;;;;;;;;;;;12.50;99.90;;;;;;4843993;29;19931;-95
2022/06/23 02:07:39;;;;;;;;;;;12.50;99.90;;;;;;4859163;29;19931;-94
2022/06/23 02:10:10;;;;;;;;;;;12.40;99.90;;;;;;4846301;29;20011;-95
2022/06/23 02:12:38;;;;;;;;;;;12.40;99.90;;;;;;4842958;29;19993;-94
2022/06/23 02:15:07;;;;;;;;;;;12.40;99.90;;;;;;4840451;29;20369;-94
2022/06/23 02:17:37;;;;;;;;;;;12.40;99.90;;;;;;4841012;29;19928;-94
2022/06/23 02:20:17;;;;;;;;;;;12.30;99.90;;;;;;4840904;29;19928;-95
2022/06/23 02:22:45;;;;;;;;;;;12.30;99.90;;;;;;4840938;29;20238;-94
2022/06/23 02:25:20;;;;;;;;;;;12.30;99.90;;;;;;4841042;29;19935;-94
2022/06/23 02:27:48;;;;;;;;;;;12.30;99.90;;;;;;4841430;29;19924;-94
2022/06/23 02:30:19;;;;;;;;;;;12.30;99.90;;;;;;4840173;29;19924;-94
2022/06/23 02:32:46;;;;;;;;;;;12.30;99.90;;;;;;4841531;29;20078;-93
2022/06/23 02:35:11;;;;;;;;;;;12.40;99.90;;;;;;4859047;29;20440;-94
2022/06/23 02:37:49;;;;;;;;;;;12.50;99.90;;;;;;4844047;29;20015;-95
2022/06/23 02:40:17;;;;;;;;;;;12.40;99.90;;;;;;4844099;29;19932;-94
2022/06/23 02:42:42;;;;;;;;;;;12.40;99.90;;;;;;4844127;29;20014;-94
2022/06/23 02:45:11;;;;;;;;;;;12.40;99.90;;;;;;4844310;29;19927;-94
2022/06/23 02:47:46;;;;;;;;;;;12.40;99.90;;;;;;4844698;29;19939;-94
2022/06/23 02:50:16;;;;;;;;;;;12.50;99.90;;;;;;4842866;29;19932;-95
2022/06/23 02:52:52;;;;;;;;;;;12.50;99.90;;;;;;4844314;29;20384;-94
2022/06/23 02:55:27;;;;;;;;;;;12.50;99.90;;;;;;4844225;29;20420;-94
2022/06/23 02:57:59;;;;;;;;;;;12.50;99.90;;;;;;4843562;29;20043;-94
2022/06/23 03:00:32;;;;;;;;;;;12.50;99.90;;;;;;4843460;29;19924;-94
2022/06/23 03:03:08;;;;;;;;;;;12.50;99.90;;;;;;4844056;29;20284;-95
2022/06/23 03:05:47;;;;;;;;;;;12.50;99.90;;;;;;4842681;29;19927;-95
2022/06/23 03:08:30;;;;;;;;;;;12.40;99.90;;;;;;4844131;29;20395;-95
2022/06/23 03:10:59;;;;;;;;;;;12.40;99.90;;;;;;4842695;29;19924;-95
2022/06/23 03:13:37;;;;;;;;;;;12.40;99.90;;;;;;4843852;29;19924;-95
2022/06/23 03:16:09;;;;;;;;;;;12.40;99.90;;;;;;4846038;29;19935;-95
2022/06/23 03:18:40;;;;;;;;;;;12.50;99.90;;;;;;4843029;29;20369;-94
2022/06/23 03:21:07;;;;;;;;;;;12.50;99.90;;;;;;4842763;29;19931;-94
2022/06/23 03:23:32;;;;;;;;;;;12.50;99.90;;;;;;4843672;29;19924;-94
2022/06/23 03:26:02;;;;;;;;;;;12.50;99.90;;;;;;4844125;29;19971;-94
2022/06/23 03:28:35;;;;;;;;;;;12.50;99.90;;;;;;4859705;29;19981;-95
2022/06/23 03:31:05;;;;;;;;;;;12.50;99.90;;;;;;4843099;29;19934;-94
2022/06/23 03:33:40;;;;;;;;;;;12.50;99.90;;;;;;4842384;29;19939;-94
2022/06/23 03:36:15;;;;;;;;;;;12.50;99.90;;;;;;4842514;29;19991;-94
2022/06/23 03:41:37;;;;;;;;;;;12.50;99.90;;;;;;4860496;29;20270;-95
2022/06/23 03:44:06;;;;;;;;;;;12.50;99.90;;;;;;4842867;29;19931;-94
2022/06/23 03:46:35;;;;;;;;;;;12.50;99.90;;;;;;4842307;29;19924;-94
2022/06/23 03:49:10;;;;;;;;;;;12.50;99.90;;;;;;4846529;29;20018;-95
2022/06/23 03:51:38;;;;;;;;;;;12.60;99.90;;;;;;4843252;29;19928;-96
2022/06/23 03:54:10;;;;;;;;;;;12.60;99.90;;;;;;4842638;29;19924;-96
2022/06/23 03:56:41;;;;;;;;;;;12.50;99.90;;;;;;4844265;29;19924;-95
2022/06/23 03:59:13;;;;;;;;;;;12.60;99.90;;;;;;4843411;29;20010;-95
2022/06/23 04:01:45;;;;;;;;;;;12.70;99.90;;;;;;4843711;29;19948;-95
2022/06/23 04:04:13;;;;;;;;;;;12.70;99.90;;;;;;4842421;29;19935;-95
2022/06/23 04:06:40;;;;;;;;;;;12.70;99.90;;;;;;4842694;29;20293;-94
2022/06/23 04:09:09;;;;;;;;;;;12.70;99.90;;;;;;4842885;29;19924;-93
2022/06/23 04:11:43;;;;;;;;;;;12.80;99.90;;;;;;4842514;29;19932;-95
2022/06/23 04:14:22;;;;;;;;;;;12.80;99.90;;;;;;4842798;29;19927;-95
2022/06/23 04:16:51;;;;;;;;;;;12.80;99.90;;;;;;4842479;29;19983;-94
2022/06/23 04:19:19;;;;;;;;;;;12.90;99.90;;;;;;4844697;29;19932;-95
2022/06/23 04:21:47;;;;;;;;;;;12.90;99.90;;;;;;4845550;29;20285;-95
2022/06/23 04:24:15;;;;;;;;;;;12.90;99.90;;;;;;4841913;29;19924;-95
2022/06/23 04:26:42;;;;;;;;;;;13.00;99.90;;;;;;4842822;29;19927;-95
2022/06/23 04:29:09;;;;;;;;;;;13.00;99.90;;;;;;4843220;29;20381;-95
2022/06/23 04:31:41;;;;;;;;;;;13.00;99.90;;;;;;4842372;29;19931;-93
2022/06/23 04:34:19;;;;;;;;;;;13.10;99.90;;;;;;4845729;29;19924;-94
2022/06/23 04:36:45;;;;;;;;;;;13.10;99.90;;;;;;4840869;29;19924;-95
2022/06/23 04:39:20;;;;;;;;;;;13.20;99.90;;;;;;4842175;29;19924;-94
2022/06/23 04:41:50;;;;;;;;;;;13.30;99.90;;;;;;4842076;29;19989;-94
2022/06/23 04:44:20;;;;;;;;;;;13.30;99.90;;;;;;4842408;29;20373;-95
2022/06/23 04:46:48;;;;;;;;;;;13.40;99.90;;;;;;4842102;29;19931;-93
2022/06/23 04:49:18;;;;;;;;;;;13.40;99.90;;;;;;4841305;29;19927;-94
2022/06/23 04:51:47;;;;;;;;;;;13.50;99.90;;;;;;4845151;29;19980;-94
2022/06/23 04:54:17;;;;;;;;;;;13.60;99.90;;;;;;4843702;29;20391;-94
2022/06/23 04:56:47;;;;;;;;;;;13.60;99.90;;;;;;4841207;29;19931;-94
2022/06/23 04:59:18;;;;;;;;;;;13.70;99.90;;;;;;4849354;29;20415;-95
2022/06/23 05:01:46;;;;;;;;;;;13.90;99.90;;;;;;4842472;29;19930;-95
2022/06/23 05:04:15;;;;;;;;;;;13.90;99.90;;;;;;4840661;29;20026;-94
2022/06/23 05:06:43;;;;;;;;;;;14.00;99.90;;;;;;4843014;29;19920;-94
2022/06/23 05:09:17;;;;;;;;;;;14.10;99.90;;;;;;4843008;29;19928;-95
2022/06/23 05:11:46;;;;;;;;;;;14.30;99.90;;;;;;4841506;29;19935;-96
2022/06/23 05:14:15;;;;;;;;;;;14.40;99.90;;;;;;4841504;29;19924;-95
2022/06/23 05:16:43;;;;;;;;;;;14.50;99.90;;;;;;4842208;29;19976;-94
2022/06/23 05:19:10;;;;;;;;;;;14.60;99.90;;;;;;4840682;29;19931;-94
2022/06/23 05:21:39;;;;;;;;;;;14.70;99.90;;;;;;4843658;29;19924;-95
2022/06/23 05:24:06;;;;;;;;;;;14.80;99.90;;;;;;4841137;29;20408;-95
2022/06/23 05:26:38;;;;;;;;;;;14.90;99.90;;;;;;4842063;29;19931;-95
2022/06/23 05:29:05;;;;;;;;;;;15.00;99.90;;;;;;4843634;29;20022;-94
2022/06/23 05:31:33;;;;;;;;;;;15.10;99.90;;;;;;4842285;29;19935;-95
2022/06/23 05:34:04;;;;;;;;;;;15.20;99.90;;;;;;4841520;29;19924;-93
2022/06/23 05:36:32;;;;;;;;;;;15.30;99.90;;;;;;4842341;29;20458;-96
2022/06/23 05:39:01;;;;;;;;;;;15.40;99.90;;;;;;4841613;29;19983;-94
2022/06/23 05:41:28;;;;;;;;;;;15.50;99.90;;;;;;4828154;29;20251;-95
2022/06/23 05:43:54;;;;;;;;;;;15.60;99.90;;;;;;4842002;29;20422;-94
2022/06/23 05:46:21;;;;;;;;;;;15.80;99.90;;;;;;4841537;29;19939;-95
2022/06/23 05:48:56;;;;;;;;;;;15.80;99.90;;;;;;4841080;29;19924;-94
2022/06/23 05:51:27;;;;;;;;;;;16.00;99.90;;;;;;4840564;29;20973;-94
2022/06/23 05:53:53;;;;;;;;;;;16.10;99.90;;;;;;4840973;29;19924;-94
2022/06/23 05:56:23;;;;;;;;;;;16.20;99.90;;;;;;4841026;29;19935;-95
2022/06/23 05:58:56;;;;;;;;;;;16.20;99.90;;;;;;4841513;29;19928;-95
2022/06/23 06:01:29;;;;;;;;;;;16.30;99.90;;;;;;4840767;29;20015;-95
2022/06/23 06:03:59;;;;;;;;;;;16.50;99.90;;;;;;4841397;29;20366;-94
2022/06/23 06:06:25;;;;;;;;;;;16.60;99.90;;;;;;4840298;29;19963;-94
2022/06/23 06:11:39;;;;;;;;;;;16.80;99.90;;;;;;4860260;29;19932;-95
2022/06/23 06:14:04;;;;;;;;;;;16.80;99.90;;;;;;4950116;23;20308;-91
2022/06/23 06:16:38;;;;;;;;;;;16.90;99.90;;;;;;4866530;29;20078;-91
2022/06/23 06:23:15;;;;;;;;;;;17.00;99.90;;;;;;4841551;29;19928;-95
2022/06/23 06:25:52;;;;;;;;;;;17.20;99.90;;;;;;4795686;29;20118;-93
2022/06/23 06:28:28;;;;;;;;;;;17.20;99.90;;;;;;4809442;29;19924;-95
2022/06/23 06:31:25;;;;;;;;;;;17.40;99.90;;;;;;4851745;29;19931;-92
2022/06/23 06:34:02;;;;;;;;;;;17.50;99.90;;;;;;4878333;29;20245;-94
2022/06/23 06:36:28;;;;;;;;;;;17.60;99.90;;;;;;4856615;29;19924;-94
2022/06/23 06:39:03;;;;;;;;;;;17.80;99.90;;;;;;4876832;29;19946;-94
2022/06/23 06:41:42;;;;;;;;;;;17.80;99.90;;;;;;4857013;29;20010;-94
2022/06/23 06:44:20;;;;;;;;;;;17.90;99.90;;;;;;4866397;29;19953;-93
2022/06/23 06:46:49;;;;;;;;;;;18.00;99.90;;;;;;4856057;29;19945;-92
2022/06/23 06:49:23;;;;;;;;;;;18.10;99.90;;;;;;4861125;29;20399;-94
2022/06/23 06:52:00;;;;;;;;;;;18.30;99.90;;;;;;4853532;29;19983;-94
2022/06/23 06:54:44;;;;;;;;;;;18.40;99.90;;;;;;4850808;29;19943;-94
2022/06/23 06:57:30;;;;;;;;;;;18.40;99.90;;;;;;4859691;29;19930;-94
2022/06/23 07:00:07;;;;;;;;;;;18.60;99.90;;;;;;4864194;29;19924;-94
2022/06/23 07:02:59;;;;;;;;;;;18.70;99.90;;;;;;4863913;29;19924;-94
2022/06/23 07:05:33;;;;;;;;;;;18.80;99.90;;;;;;4864003;29;19933;-95
2022/06/23 07:08:02;;;;;;;;;;;19.00;99.90;;;;;;4866878;29;19924;-95
2022/06/23 07:10:31;;;;;;;;;;;19.00;99.90;;;;;;4866634;29;20299;-96
2022/06/23 07:12:59;;;;;;;;;;;19.00;99.90;;;;;;4858340;29;19923;-95
2022/06/23 07:15:29;;;;;;;;;;;19.30;99.90;;;;;;4858448;29;19924;-96
2022/06/23 07:18:04;;;;;;;;;;;19.50;99.90;;;;;;4860376;29;20407;-94
2022/06/23 07:20:44;;;;;;;;;;;19.50;99.90;;;;;;4862122;29;19934;-96
2022/06/23 07:23:13;;;;;;;;;;;19.60;99.90;;;;;;4878656;29;19926;-96
2022/06/23 07:25:45;;;;;;;;;;;19.90;99.90;;;;;;4894966;29;19930;-96
2022/06/23 07:28:14;;;;;;;;;;;19.70;99.90;;;;;;4862571;29;19939;-96
2022/06/23 07:30:43;;;;;;;;;;;19.80;99.90;;;;;;4861087;29;19927;-96
2022/06/23 07:33:18;;;;;;;;;;;19.80;99.90;;;;;;4859011;29;20017;-96
2022/06/23 07:35:56;;;;;;;;;;;20.00;99.90;;;;;;4855068;29;19927;-96
2022/06/23 07:38:46;;;;;;;;;;;20.10;99.90;;;;;;4875025;29;20388;-96
2022/06/23 07:41:12;;;;;;;;;;;20.30;99.90;;;;;;4876004;23;20264;-94
2022/06/23 07:43:41;;;;;;;;;;;20.30;99.90;;;;;;4860929;29;20010;-93
2022/06/23 07:46:07;;;;;;;;;;;20.40;99.90;;;;;;4872175;29;19934;-95
2022/06/23 07:48:34;;;;;;;;;;;20.50;99.90;;;;;;4837464;29;20015;-96
2022/06/23 07:51:04;;;;;;;;;;;20.60;99.90;;;;;;4861273;29;19939;-96
2022/06/23 07:53:45;;;;;;;;;;;20.70;99.90;;;;;;4897895;29;19963;-96
2022/06/23 07:56:15;;;;;;;;;;;20.70;99.90;;;;;;4866116;29;19924;-96
2022/06/23 07:58:47;;;;;;;;;;;21.00;99.90;;;;;;4866734;29;19979;-96
2022/06/23 08:01:54;;;;;;;;;;;21.00;99.90;;;;;;4898053;29;19937;-96
2022/06/23 08:05:05;;;;;;;;;;;21.20;99.90;;;;;;4901612;29;19924;-96
2022/06/23 08:17:21;;;;;;;;;;;21.60;99.90;;;;;;5109561;23;19933;-90
2022/06/23 08:23:43;;;;;;;;;;;21.90;99.90;;;;;;4841329;29;19931;-91
2022/06/23 08:27:13;;;;;;;;;;;22.00;99.90;;;;;;4845840;29;19934;-89
2022/06/23 08:30:07;;;;;;;;;;;22.20;99.90;;;;;;4840642;29;19935;-90
2022/06/23 08:32:44;;;;;;;;;;;22.30;99.90;;;;;;4845280;29;20018;-90
2022/06/23 08:41:45;;;;;;;;;;;22.60;99.90;;;;;;4859967;29;19927;-91
2022/06/23 08:44:23;;;;;;;;;;;22.60;99.90;;;;;;4845562;29;20288;-90
2022/06/23 08:47:08;;;;;;;;;;;;;;;;;;;;;
2022/06/23 09:12:23;;;;;;;;;;;24.20;99.90;;;;;;4832791;29;20035;-92
2022/06/23 09:25:30;;;;;;;;;;;24.20;99.90;;;;;;4816853;29;20285;-91
2022/06/23 09:28:21;;;;;;;;;;;24.60;99.90;;;;;;4800055;29;19976;-91
2022/06/23 09:31:31;;;;;;;;;;;24.70;99.90;;;;;;4820072;29;19964;-90
2022/06/23 09:34:28;;;;;;;;;;;24.80;99.90;;;;;;4826302;29;19927;-91
2022/06/23 09:37:31;;;;;;;;;;;24.90;99.90;;;;;;4857071;29;20439;-91
2022/06/23 09:40:26;;;;;;;;;;;25.00;99.90;;;;;;4863901;29;20284;-90
2022/06/23 09:43:20;;;;;;;;;;;25.10;99.90;;;;;;4969388;23;19923;-91
2022/06/23 09:46:15;;;;;;;;;;;25.20;99.90;;;;;;4897653;29;20356;-91
2022/06/23 09:52:57;;;;;;;;;;;25.40;99.90;;;;;;4863308;29;20304;-91
2022/06/23 09:55:47;;;;;;;;;;;;;;;;;;;;;
2022/06/23 09:58:31;;;;;;;;;;;25.50;99.90;;;;;;4863162;29;19971;-91
2022/06/23 10:01:27;;;;;;;;;;;25.70;99.90;;;;;;4870857;29;19924;-91
2022/06/23 10:13:50;;;;;;;;;;;26.10;99.90;;;;;;4880791;29;20431;-90
2022/06/23 10:16:25;;;;;;;;;;;26.20;99.90;;;;;;4880760;29;19982;-90
2022/06/23 10:19:30;;;;;;;;;;;26.30;99.90;;;;;;4896814;29;19928;-90
2022/06/23 10:21:59;;;;;;;;;;;26.50;99.90;;;;;;4853377;29;19928;-91
2022/06/23 10:24:56;;;;;;;;;;;26.60;99.90;;;;;;4897344;29;19935;-91
2022/06/23 10:27:46;;;;;;;;;;;26.70;99.90;;;;;;4866535;29;20003;-91
2022/06/23 10:30:49;;;;;;;;;;;26.70;99.90;;;;;;4862858;29;19924;-90
2022/06/23 10:33:48;;;;;;;;;;;26.80;99.90;;;;;;4897382;29;19977;-90
2022/06/23 10:40:23;;;;;;;;;;;27.00;99.90;;;;;;4892657;29;20015;-89
2022/06/23 10:46:53;;;;;;;;;;;27.10;99.90;;;;;;4864152;29;19923;-90
2022/06/23 10:49:58;;;;;;;;;;;27.30;99.90;;;;;;4861416;29;20421;-89
2022/06/23 10:52:49;;;;;;;;;;;27.40;99.90;;;;;;4869998;29;20429;-89
2022/06/23 10:55:45;;;;;;;;;;;27.50;99.90;;;;;;4865921;29;20356;-89
2022/06/23 14:16:22;;;;;;;;;;;30.00;66.80;;;;;;4822043;29;19923;-89
2022/06/23 14:25:23;;;;;;;;;;;30.20;66.60;;;;;;5557762;23;19923;-96
2022/06/23 14:27:55;;;;;;;;;;;30.20;64.30;;;;;;4895469;29;19923;-96
2022/06/23 14:30:38;;;;;;;;;;;30.20;65.20;;;;;;4878525;29;19923;-96
2022/06/23 14:46:07;;;;;;;;;;;30.40;65.40;;;;;;5212260;23;19923;-96
2022/06/23 14:48:43;;;;;;;;;;;30.50;65.80;;;;;;4897086;29;19973;-96
2022/06/23 14:51:13;;;;;;;;;;;30.50;63.70;;;;;;4874249;29;19934;-96
2022/06/23 14:53:48;;;;;;;;;;;30.60;63.10;;;;;;4899304;29;19954;-96
2022/06/23 14:56:23;;;;;;;;;;;30.70;64.40;;;;;;4873257;29;19946;-96
2022/06/23 14:58:53;;;;;;;;;;;30.70;62.80;;;;;;4875385;29;19927;-96
2022/06/23 15:01:41;;;;;;;;;;;30.70;61.90;;;;;;4877621;29;19987;-96
2022/06/23 16:43:46;;;;;;;;;;;33.60;58.30;;;;;;4918779;23;20308;-95
2022/06/23 16:46:20;;;;;;;;;;;34.00;58.30;;;;;;4879755;29;19974;-96
2022/06/23 16:48:52;;;;;;;;;;;34.30;57.60;;;;;;4864283;29;19974;-96
2022/06/23 16:51:38;;;;;;;;;;;34.60;56.40;;;;;;4862800;29;19938;-96
2022/06/23 16:54:12;;;;;;;;;;;35.00;56.30;;;;;;4863618;29;19946;-96
2022/06/23 16:56:50;;;;;;;;;;;35.20;56.30;;;;;;4864253;29;20372;-96
2022/06/23 16:59:22;;;;;;;;;;;35.50;55.80;;;;;;4864279;29;19989;-95
2022/06/23 17:01:48;;;;;;;;;;;35.80;56.60;;;;;;4868073;29;19923;-96
2022/06/23 17:04:19;;;;;;;;;;;36.10;54.90;;;;;;4865128;29;19974;-96
2022/06/23 17:06:53;;;;;;;;;;;36.30;53.80;;;;;;4863614;29;20027;-96
2022/06/23 17:09:26;;;;;;;;;;;36.40;53.50;;;;;;4863720;29;20399;-96
2022/06/23 17:11:58;;;;;;;;;;;36.60;53.10;;;;;;4864186;29;19952;-96
2022/06/23 17:14:27;;;;;;;;;;;36.60;52.90;;;;;;4863666;29;19923;-96
2022/06/23 17:16:55;;;;;;;;;;;36.70;53.40;;;;;;4863488;29;19927;-96
2022/06/23 17:19:25;;;;;;;;;;;36.70;52.60;;;;;;4867128;29;19998;-96
2022/06/23 17:21:53;;;;;;;;;;;36.80;52.40;;;;;;4864657;29;19931;-96
2022/06/23 17:24:23;;;;;;;;;;;36.90;51.50;;;;;;4864778;29;19928;-95
2022/06/23 17:27:07;;;;;;;;;;;36.80;51.80;;;;;;4860541;29;20010;-96
2022/06/23 17:29:41;;;;;;;;;;;36.70;50.60;;;;;;4860309;29;19927;-96
2022/06/23 17:32:14;;;;;;;;;;;36.80;50.40;;;;;;4887908;23;20019;-95
2022/06/23 17:34:49;;;;;;;;;;;36.90;50.90;;;;;;4833659;29;19971;-96
2022/06/23 17:37:18;;;;;;;;;;;36.80;50.00;;;;;;4826247;29;19992;-95
2022/06/23 17:45:24;;;;;;;;;;;36.60;49.40;;;;;;4842366;29;19931;-95
2022/06/23 17:47:50;;;;;;;;;;;36.60;49.50;;;;;;4844694;29;20375;-96
2022/06/23 17:50:28;;;;;;;;;;;36.20;49.80;;;;;;4833084;29;19990;-96
2022/06/23 17:52:55;;;;;;;;;;;35.50;50.70;;;;;;4852707;29;19928;-96
2022/06/23 17:55:24;;;;;;;;;;;34.80;52.00;;;;;;4848041;29;20365;-96
2022/06/23 17:57:54;;;;;;;;;;;34.10;52.50;;;;;;4850120;29;19924;-96
2022/06/23 18:00:21;;;;;;;;;;;33.60;53.50;;;;;;4849311;29;19924;-96
2022/06/23 18:02:50;;;;;;;;;;;33.00;53.10;;;;;;4834350;29;19924;-96
2022/06/23 18:05:20;;;;;;;;;;;32.60;54.10;;;;;;4836063;29;19924;-96
2022/06/23 18:07:53;;;;;;;;;;;32.10;55.40;;;;;;4851476;29;20355;-96
2022/06/23 18:10:24;;;;;;;;;;;31.70;56.60;;;;;;4847989;29;20359;-96
2022/06/23 18:12:54;;;;;;;;;;;31.30;57.30;;;;;;4849192;29;19934;-96
2022/06/23 18:15:21;;;;;;;;;;;31.00;58.00;;;;;;4856475;29;19943;-96
2022/06/23 18:17:59;;;;;;;;;;;30.70;58.80;;;;;;4872440;29;19928;-96
2022/06/23 18:20:34;;;;;;;;;;;30.40;59.50;;;;;;4849271;29;19935;-95
2022/06/23 18:23:04;;;;;;;;;;;30.20;60.10;;;;;;4854995;29;19931;-96
2022/06/23 18:25:30;;;;;;;;;;;29.90;60.30;;;;;;4869597;29;19920;-96
2022/06/23 18:28:19;;;;;;;;;;;29.70;60.60;;;;;;4860021;29;19963;-96
2022/06/23 18:30:50;;;;;;;;;;;29.40;61.00;;;;;;4861477;29;19924;-96
2022/06/23 18:33:21;;;;;;;;;;;29.40;61.70;;;;;;4849484;29;20027;-96
2022/06/23 18:35:48;;;;;;;;;;;29.20;61.70;;;;;;4849186;29;20034;-96
2022/06/23 18:38:21;;;;;;;;;;;29.00;62.10;;;;;;4837774;29;19923;-96
2022/06/23 18:40:52;;;;;;;;;;;28.90;62.10;;;;;;4846306;29;19979;-96
2022/06/23 18:43:34;;;;;;;;;;;28.70;62.40;;;;;;4829609;29;19927;-96
2022/06/23 18:46:01;;;;;;;;;;;28.50;62.80;;;;;;4844402;29;19927;-96
2022/06/23 18:48:27;;;;;;;;;;;28.40;63.10;;;;;;4846362;29;19928;-96
2022/06/23 18:50:56;;;;;;;;;;;28.30;63.60;;;;;;4829749;29;19964;-96
2022/06/23 18:53:30;;;;;;;;;;;28.20;63.80;;;;;;4823929;29;20437;-96
2022/06/23 18:55:59;;;;;;;;;;;28.00;64.30;;;;;;4808448;29;19987;-96
2022/06/23 18:58:29;;;;;;;;;;;27.90;64.70;;;;;;4827716;29;19986;-96
2022/06/23 19:01:00;;;;;;;;;;;27.80;65.10;;;;;;4795494;29;19932;-96
2022/06/23 19:03:27;;;;;;;;;;;27.70;65.50;;;;;;4857213;29;20332;-95
2022/06/23 19:05:55;;;;;;;;;;;27.60;65.90;;;;;;4826111;29;19979;-96
2022/06/23 19:08:23;;;;;;;;;;;27.50;66.60;;;;;;4857249;29;19931;-96
2022/06/23 19:10:56;;;;;;;;;;;27.40;66.90;;;;;;4857689;29;19925;-96
2022/06/23 19:13:25;;;;;;;;;;;27.30;67.50;;;;;;4858074;29;19932;-96
2022/06/23 19:15:57;;;;;;;;;;;27.10;68.10;;;;;;4834208;29;19936;-96
2022/06/23 19:18:31;;;;;;;;;;;27.00;69.40;;;;;;4862477;29;19982;-96
2022/06/23 19:21:14;;;;;;;;;;;26.90;70.20;;;;;;4862310;29;19989;-96
2022/06/23 19:23:45;;;;;;;;;;;26.70;72.30;;;;;;4862979;29;19987;-96
2022/06/23 19:26:13;;;;;;;;;;;26.60;76.00;;;;;;4858933;29;19936;-94
2022/06/23 19:28:43;;;;;;;;;;;26.50;79.10;;;;;;4857967;29;19925;-94
2022/06/23 19:31:16;;;;;;;;;;;26.30;82.70;;;;;;4826756;29;19924;-95
2022/06/23 19:33:44;;;;;;;;;;;26.20;85.50;;;;;;4859223;29;19928;-96
2022/06/23 19:36:10;;;;;;;;;;;26.10;89.10;;;;;;4842016;29;19925;-95
2022/06/23 19:38:39;;;;;;;;;;;26.00;91.20;;;;;;4826949;29;19931;-96
2022/06/23 19:41:19;;;;;;;;;;;25.90;93.00;;;;;;4826780;29;19930;-95
2022/06/23 19:43:45;;;;;;;;;;;25.80;93.70;;;;;;4858248;29;19924;-96
2022/06/23 19:46:14;;;;;;;;;;;25.70;95.80;;;;;;4826222;29;20403;-96
2022/06/23 19:48:43;;;;;;;;;;;25.60;96.90;;;;;;4858229;29;19959;-96
2022/06/23 19:51:18;;;;;;;;;;;25.50;97.40;;;;;;4858206;29;19981;-96
2022/06/23 19:53:47;;;;;;;;;;;25.40;98.40;;;;;;4860222;29;19987;-96
2022/06/23 19:56:16;;;;;;;;;;;25.30;99.00;;;;;;4856852;29;19924;-96
2022/06/23 19:58:46;;;;;;;;;;;25.20;99.80;;;;;;4859435;29;19924;-96
2022/06/23 20:01:15;;;;;;;;;;;25.10;99.90;;;;;;4827970;29;19932;-96
2022/06/23 20:03:50;;;;;;;;;;;25.00;99.90;;;;;;4863488;29;20393;-95
2022/06/23 20:06:35;;;;;;;;;;;25.00;99.90;;;;;;4845804;29;20321;-96
2022/06/23 20:09:02;;;;;;;;;;;24.90;99.90;;;;;;4846755;29;19928;-96
2022/06/23 20:11:34;;;;;;;;;;;24.80;99.90;;;;;;4845557;29;20007;-96
2022/06/23 20:14:02;;;;;;;;;;;24.80;99.90;;;;;;4847448;29;19928;-96
2022/06/23 20:16:38;;;;;;;;;;;24.70;99.90;;;;;;4848421;29;19920;-96
2022/06/23 20:19:09;;;;;;;;;;;24.60;99.90;;;;;;4844023;29;19924;-96
2022/06/23 20:21:44;;;;;;;;;;;24.50;99.90;;;;;;4845042;29;19927;-96
2022/06/23 20:24:25;;;;;;;;;;;24.50;99.90;;;;;;4847868;29;19930;-96
2022/06/23 20:26:55;;;;;;;;;;;24.40;99.90;;;;;;4846967;29;19924;-96
2022/06/23 20:29:33;;;;;;;;;;;24.40;99.90;;;;;;4854570;29;19927;-96
2022/06/23 20:32:04;;;;;;;;;;;24.30;99.90;;;;;;4847653;29;20933;-96
2022/06/23 20:34:46;;;;;;;;;;;24.20;99.90;;;;;;4860948;29;19931;-96
2022/06/23 20:37:22;;;;;;;;;;;24.10;99.90;;;;;;4849115;29;19912;-96
2022/06/23 20:39:49;;;;;;;;;;;24.00;99.90;;;;;;4843306;29;19924;-96
2022/06/23 20:42:26;;;;;;;;;;;24.00;99.90;;;;;;4850829;29;19981;-96
2022/06/23 20:45:03;;;;;;;;;;;23.90;99.90;;;;;;4847667;29;19976;-96
2022/06/23 20:47:33;;;;;;;;;;;24.00;99.90;;;;;;4846967;29;20399;-96
2022/06/23 20:50:23;;;;;;;;;;;23.70;99.90;;;;;;4850228;29;20380;-96
2022/06/23 20:52:55;;;;;;;;;;;23.60;99.90;;;;;;4844348;29;19978;-96
2022/06/23 20:55:28;;;;;;;;;;;23.50;99.90;;;;;;4834870;29;19932;-96
2022/06/23 20:57:58;;;;;;;;;;;23.50;99.90;;;;;;4838476;29;19927;-96
2022/06/23 21:00:24;;;;;;;;;;;23.40;99.90;;;;;;4829517;29;20445;-96
2022/06/23 21:02:54;;;;;;;;;;;23.40;99.90;;;;;;4830998;29;19924;-96
2022/06/23 21:05:20;;;;;;;;;;;23.30;99.90;;;;;;4828874;29;19924;-96
2022/06/23 21:07:53;;;;;;;;;;;23.20;99.90;;;;;;4850017;29;20441;-96
2022/06/23 21:10:24;;;;;;;;;;;23.00;99.90;;;;;;4848456;29;20031;-96
2022/06/23 21:12:58;;;;;;;;;;;23.00;99.90;;;;;;4836325;29;19931;-95
2022/06/23 21:15:36;;;;;;;;;;;22.90;99.90;;;;;;4807730;29;20274;-95
2022/06/23 21:18:01;;;;;;;;;;;22.80;99.90;;;;;;4823917;29;19928;-95
2022/06/23 21:20:28;;;;;;;;;;;22.70;99.90;;;;;;4823376;29;19924;-94
2022/06/23 21:23:01;;;;;;;;;;;22.70;99.90;;;;;;4822972;29;19972;-94
2022/06/23 21:25:30;;;;;;;;;;;22.60;99.90;;;;;;4808237;29;19932;-95
2022/06/23 21:28:04;;;;;;;;;;;22.60;99.90;;;;;;4820280;29;20428;-94
2022/06/23 21:30:37;;;;;;;;;;;22.50;99.90;;;;;;4842453;29;19924;-94
2022/06/23 21:33:06;;;;;;;;;;;22.50;99.90;;;;;;4841363;29;19990;-94
2022/06/23 21:35:37;;;;;;;;;;;22.40;99.90;;;;;;4841856;29;19935;-95
2022/06/23 21:38:06;;;;;;;;;;;22.30;99.90;;;;;;4841277;29;20402;-95
2022/06/23 21:40:34;;;;;;;;;;;22.30;99.90;;;;;;4840906;29;20372;-95
2022/06/23 21:43:01;;;;;;;;;;;22.20;99.90;;;;;;4841190;29;19970;-94